Stip, Macedonia
Current Conditions -  °F | °C
As of 7:30 AM on Sunday 23 Nov 2014 (Local Time) from LWSK Reporting Station
Clear Clear  
Wind Chill: 27°   Ceiling: Unl
Heat Index: 27°   Visibility: 6mi
Dew Point: 25°   Wind: 0mph
Humidity: 93%   Direction: NA
Pressure: 30.39"   Gusts: NA
Location:  41.75°N, 22.2°E
Report Text: LWSK 230530Z 00000KT CAVOK M03/M04 Q1029 NOSIG
Loading
Personal Weather Stations






























Interactive Weather Map New forecast layout! Learn more

10-Day Weather Forecast

Advertisements
Track Severe Weather on mobile